sensor_id;sensor_type;location;lat;lon;timestamp;P1;durP1;ratioP1;P2;durP2;ratioP2
5722;SDS011;2886;49.722;8.612;2023-08-24T00:01:28;8.27;;;4.03;;
5722;SDS011;2886;49.722;8.612;2023-08-24T00:03:54;7.40;;;3.93;;
5722;SDS011;2886;49.722;8.612;2023-08-24T00:06:19;4.27;;;3.50;;
5722;SDS011;2886;49.722;8.612;2023-08-24T00:08:45;5.77;;;3.73;;
5722;SDS011;2886;49.722;8.612;2023-08-24T00:11:11;7.10;;;3.90;;
5722;SDS011;2886;49.722;8.612;2023-08-24T00:13:43;5.90;;;4.20;;
5722;SDS011;2886;49.722;8.612;2023-08-24T00:16:14;4.47;;;4.03;;
5722;SDS011;2886;49.722;8.612;2023-08-24T00:18:41;6.03;;;4.10;;
5722;SDS011;2886;49.722;8.612;2023-08-24T00:21:07;6.47;;;4.40;;
5722;SDS011;2886;49.722;8.612;2023-08-24T00:23:33;4.83;;;4.13;;
5722;SDS011;2886;49.722;8.612;2023-08-24T00:25:59;5.87;;;4.00;;
5722;SDS011;2886;49.722;8.612;2023-08-24T00:28:25;6.80;;;4.30;;
5722;SDS011;2886;49.722;8.612;2023-08-24T00:30:51;4.77;;;4.03;;
5722;SDS011;2886;49.722;8.612;2023-08-24T00:33:16;6.90;;;4.40;;
5722;SDS011;2886;49.722;8.612;2023-08-24T00:35:42;5.30;;;3.60;;
5722;SDS011;2886;49.722;8.612;2023-08-24T00:38:08;6.60;;;4.23;;
5722;SDS011;2886;49.722;8.612;2023-08-24T00:40:34;5.93;;;4.10;;
5722;SDS011;2886;49.722;8.612;2023-08-24T00:42:59;8.50;;;4.40;;
5722;SDS011;2886;49.722;8.612;2023-08-24T00:45:25;10.53;;;4.33;;
5722;SDS011;2886;49.722;8.612;2023-08-24T00:47:51;6.40;;;4.23;;
5722;SDS011;2886;49.722;8.612;2023-08-24T00:50:17;11.70;;;5.20;;
5722;SDS011;2886;49.722;8.612;2023-08-24T00:52:44;7.20;;;4.97;;
5722;SDS011;2886;49.722;8.612;2023-08-24T00:55:11;6.97;;;4.40;;
5722;SDS011;2886;49.722;8.612;2023-08-24T00:57:38;12.20;;;5.17;;
5722;SDS011;2886;49.722;8.612;2023-08-24T01:00:06;6.93;;;4.70;;
5722;SDS011;2886;49.722;8.612;2023-08-24T01:02:36;7.37;;;4.77;;
5722;SDS011;2886;49.722;8.612;2023-08-24T01:05:02;13.00;;;4.43;;
5722;SDS011;2886;49.722;8.612;2023-08-24T01:07:30;7.10;;;4.33;;
5722;SDS011;2886;49.722;8.612;2023-08-24T01:09:57;6.17;;;4.53;;
5722;SDS011;2886;49.722;8.612;2023-08-24T01:12:28;6.80;;;5.17;;
5722;SDS011;2886;49.722;8.612;2023-08-24T01:15:08;6.00;;;4.80;;
5722;SDS011;2886;49.722;8.612;2023-08-24T01:17:39;6.83;;;5.40;;
5722;SDS011;2886;49.722;8.612;2023-08-24T01:20:08;6.80;;;4.50;;
5722;SDS011;2886;49.722;8.612;2023-08-24T01:22:44;9.00;;;5.00;;
5722;SDS011;2886;49.722;8.612;2023-08-24T01:28:00;4.20;;;3.80;;
5722;SDS011;2886;49.722;8.612;2023-08-24T01:30:27;6.13;;;4.70;;
5722;SDS011;2886;49.722;8.612;2023-08-24T01:32:53;5.50;;;4.70;;
5722;SDS011;2886;49.722;8.612;2023-08-24T01:35:19;8.80;;;4.70;;
5722;SDS011;2886;49.722;8.612;2023-08-24T01:37:45;6.10;;;4.87;;
5722;SDS011;2886;49.722;8.612;2023-08-24T01:40:21;14.43;;;5.40;;
5722;SDS011;2886;49.722;8.612;2023-08-24T01:42:54;6.40;;;5.57;;
5722;SDS011;2886;49.722;8.612;2023-08-24T01:45:24;10.20;;;5.00;;
5722;SDS011;2886;49.722;8.612;2023-08-24T01:47:54;6.87;;;5.10;;
5722;SDS011;2886;49.722;8.612;2023-08-24T01:50:21;10.13;;;4.73;;
5722;SDS011;2886;49.722;8.612;2023-08-24T01:52:47;9.43;;;5.10;;
5722;SDS011;2886;49.722;8.612;2023-08-24T01:55:13;8.07;;;5.30;;
5722;SDS011;2886;49.722;8.612;2023-08-24T01:57:40;7.27;;;5.17;;
5722;SDS011;2886;49.722;8.612;2023-08-24T02:00:06;11.83;;;5.30;;
5722;SDS011;2886;49.722;8.612;2023-08-24T02:02:34;7.87;;;5.17;;
5722;SDS011;2886;49.722;8.612;2023-08-24T02:05:00;6.40;;;4.73;;
5722;SDS011;2886;49.722;8.612;2023-08-24T02:07:26;6.83;;;5.23;;
5722;SDS011;2886;49.722;8.612;2023-08-24T02:09:52;15.00;;;6.17;;
5722;SDS011;2886;49.722;8.612;2023-08-24T02:12:17;8.50;;;5.50;;
5722;SDS011;2886;49.722;8.612;2023-08-24T02:14:43;12.33;;;5.13;;
5722;SDS011;2886;49.722;8.612;2023-08-24T02:17:08;8.40;;;5.30;;
5722;SDS011;2886;49.722;8.612;2023-08-24T02:19:34;7.53;;;5.20;;
5722;SDS011;2886;49.722;8.612;2023-08-24T02:22:00;6.40;;;4.70;;
5722;SDS011;2886;49.722;8.612;2023-08-24T02:24:26;6.77;;;5.23;;
5722;SDS011;2886;49.722;8.612;2023-08-24T02:26:51;8.07;;;5.20;;
5722;SDS011;2886;49.722;8.612;2023-08-24T02:29:17;7.80;;;5.07;;
5722;SDS011;2886;49.722;8.612;2023-08-24T02:31:42;11.23;;;5.70;;
5722;SDS011;2886;49.722;8.612;2023-08-24T02:34:08;11.80;;;5.60;;
5722;SDS011;2886;49.722;8.612;2023-08-24T02:36:34;7.50;;;4.93;;
5722;SDS011;2886;49.722;8.612;2023-08-24T02:39:01;9.80;;;5.90;;
5722;SDS011;2886;49.722;8.612;2023-08-24T02:41:26;8.50;;;5.67;;
5722;SDS011;2886;49.722;8.612;2023-08-24T02:43:52;6.60;;;5.70;;
5722;SDS011;2886;49.722;8.612;2023-08-24T02:46:18;9.17;;;5.30;;
5722;SDS011;2886;49.722;8.612;2023-08-24T02:48:45;7.90;;;4.80;;
5722;SDS011;2886;49.722;8.612;2023-08-24T02:51:11;7.60;;;5.10;;
5722;SDS011;2886;49.722;8.612;2023-08-24T02:53:37;8.30;;;5.10;;
5722;SDS011;2886;49.722;8.612;2023-08-24T02:56:02;7.23;;;4.80;;
5722;SDS011;2886;49.722;8.612;2023-08-24T02:58:28;8.17;;;6.00;;
5722;SDS011;2886;49.722;8.612;2023-08-24T03:00:55;8.60;;;6.00;;
5722;SDS011;2886;49.722;8.612;2023-08-24T03:03:20;5.93;;;5.33;;
5722;SDS011;2886;49.722;8.612;2023-08-24T03:06:02;13.50;;;5.97;;
5722;SDS011;2886;49.722;8.612;2023-08-24T03:08:32;7.60;;;5.77;;
5722;SDS011;2886;49.722;8.612;2023-08-24T03:10:59;6.13;;;4.97;;
5722;SDS011;2886;49.722;8.612;2023-08-24T03:13:26;6.50;;;5.27;;
5722;SDS011;2886;49.722;8.612;2023-08-24T03:15:52;10.40;;;5.50;;
5722;SDS011;2886;49.722;8.612;2023-08-24T03:18:19;8.30;;;5.50;;
5722;SDS011;2886;49.722;8.612;2023-08-24T03:20:45;14.10;;;5.07;;
5722;SDS011;2886;49.722;8.612;2023-08-24T03:23:12;8.13;;;5.10;;
5722;SDS011;2886;49.722;8.612;2023-08-24T03:25:39;7.53;;;5.30;;
5722;SDS011;2886;49.722;8.612;2023-08-24T03:28:06;9.13;;;5.10;;
5722;SDS011;2886;49.722;8.612;2023-08-24T03:30:36;8.50;;;5.10;;
5722;SDS011;2886;49.722;8.612;2023-08-24T03:33:03;7.90;;;5.37;;
5722;SDS011;2886;49.722;8.612;2023-08-24T03:35:32;7.77;;;4.90;;
5722;SDS011;2886;49.722;8.612;2023-08-24T03:37:58;9.47;;;5.67;;
5722;SDS011;2886;49.722;8.612;2023-08-24T03:40:24;12.93;;;5.23;;
5722;SDS011;2886;49.722;8.612;2023-08-24T03:42:50;5.90;;;5.30;;
5722;SDS011;2886;49.722;8.612;2023-08-24T03:45:16;9.07;;;6.23;;
5722;SDS011;2886;49.722;8.612;2023-08-24T03:47:42;7.73;;;5.00;;
5722;SDS011;2886;49.722;8.612;2023-08-24T03:50:07;12.43;;;6.73;;
5722;SDS011;2886;49.722;8.612;2023-08-24T03:52:34;7.73;;;5.90;;
5722;SDS011;2886;49.722;8.612;2023-08-24T03:54:59;9.83;;;6.17;;
5722;SDS011;2886;49.722;8.612;2023-08-24T03:57:25;8.70;;;6.07;;
5722;SDS011;2886;49.722;8.612;2023-08-24T03:59:51;9.67;;;6.50;;
5722;SDS011;2886;49.722;8.612;2023-08-24T04:02:16;11.57;;;5.90;;
5722;SDS011;2886;49.722;8.612;2023-08-24T04:04:43;14.57;;;6.30;;
5722;SDS011;2886;49.722;8.612;2023-08-24T04:07:08;9.30;;;6.03;;
5722;SDS011;2886;49.722;8.612;2023-08-24T04:09:35;9.93;;;5.73;;
5722;SDS011;2886;49.722;8.612;2023-08-24T04:12:01;7.23;;;5.50;;
5722;SDS011;2886;49.722;8.612;2023-08-24T04:14:26;6.90;;;5.60;;
5722;SDS011;2886;49.722;8.612;2023-08-24T04:16:52;9.30;;;6.27;;
5722;SDS011;2886;49.722;8.612;2023-08-24T04:19:17;10.40;;;6.00;;
5722;SDS011;2886;49.722;8.612;2023-08-24T04:21:43;10.13;;;6.03;;
5722;SDS011;2886;49.722;8.612;2023-08-24T04:24:08;8.03;;;5.63;;
5722;SDS011;2886;49.722;8.612;2023-08-24T04:26:34;7.93;;;5.60;;
5722;SDS011;2886;49.722;8.612;2023-08-24T04:28:59;10.07;;;5.73;;
5722;SDS011;2886;49.722;8.612;2023-08-24T04:31:25;13.60;;;5.83;;
5722;SDS011;2886;49.722;8.612;2023-08-24T04:33:51;6.00;;;5.00;;
5722;SDS011;2886;49.722;8.612;2023-08-24T04:36:16;9.17;;;6.10;;
5722;SDS011;2886;49.722;8.612;2023-08-24T04:38:42;11.77;;;5.87;;
5722;SDS011;2886;49.722;8.612;2023-08-24T04:41:09;10.43;;;5.50;;
5722;SDS011;2886;49.722;8.612;2023-08-24T04:43:34;13.07;;;5.70;;
5722;SDS011;2886;49.722;8.612;2023-08-24T04:46:01;8.20;;;5.47;;
5722;SDS011;2886;49.722;8.612;2023-08-24T04:48:27;8.37;;;5.03;;
5722;SDS011;2886;49.722;8.612;2023-08-24T04:50:57;8.60;;;5.40;;
5722;SDS011;2886;49.722;8.612;2023-08-24T04:53:23;8.50;;;6.07;;
5722;SDS011;2886;49.722;8.612;2023-08-24T04:55:49;7.70;;;5.57;;
5722;SDS011;2886;49.722;8.612;2023-08-24T04:58:15;12.70;;;6.37;;
5722;SDS011;2886;49.722;8.612;2023-08-24T05:00:41;8.00;;;6.60;;
5722;SDS011;2886;49.722;8.612;2023-08-24T05:03:07;6.63;;;5.43;;
5722;SDS011;2886;49.722;8.612;2023-08-24T05:05:33;13.07;;;6.67;;
5722;SDS011;2886;49.722;8.612;2023-08-24T05:08:00;15.07;;;6.20;;
5722;SDS011;2886;49.722;8.612;2023-08-24T05:10:29;9.30;;;6.50;;
5722;SDS011;2886;49.722;8.612;2023-08-24T05:12:55;14.27;;;7.10;;
5722;SDS011;2886;49.722;8.612;2023-08-24T05:15:21;12.40;;;6.30;;
5722;SDS011;2886;49.722;8.612;2023-08-24T05:17:47;8.80;;;5.73;;
5722;SDS011;2886;49.722;8.612;2023-08-24T05:20:12;10.43;;;6.40;;
5722;SDS011;2886;49.722;8.612;2023-08-24T05:22:38;11.13;;;6.00;;
5722;SDS011;2886;49.722;8.612;2023-08-24T05:25:04;9.50;;;6.23;;
5722;SDS011;2886;49.722;8.612;2023-08-24T05:27:30;10.60;;;6.27;;
5722;SDS011;2886;49.722;8.612;2023-08-24T05:29:56;13.70;;;7.57;;
5722;SDS011;2886;49.722;8.612;2023-08-24T05:32:22;9.00;;;7.90;;
5722;SDS011;2886;49.722;8.612;2023-08-24T05:34:48;8.50;;;6.87;;
5722;SDS011;2886;49.722;8.612;2023-08-24T05:37:14;13.67;;;7.70;;
5722;SDS011;2886;49.722;8.612;2023-08-24T05:39:46;10.70;;;7.60;;
5722;SDS011;2886;49.722;8.612;2023-08-24T05:42:11;15.07;;;7.80;;
5722;SDS011;2886;49.722;8.612;2023-08-24T05:44:37;20.77;;;8.50;;
5722;SDS011;2886;49.722;8.612;2023-08-24T05:47:03;13.57;;;8.60;;
5722;SDS011;2886;49.722;8.612;2023-08-24T05:49:29;10.50;;;7.63;;
5722;SDS011;2886;49.722;8.612;2023-08-24T05:51:55;12.70;;;8.37;;
5722;SDS011;2886;49.722;8.612;2023-08-24T05:54:20;10.77;;;9.00;;
5722;SDS011;2886;49.722;8.612;2023-08-24T05:56:46;11.73;;;8.83;;
5722;SDS011;2886;49.722;8.612;2023-08-24T05:59:13;11.63;;;9.20;;
5722;SDS011;2886;49.722;8.612;2023-08-24T06:01:39;15.13;;;9.90;;
5722;SDS011;2886;49.722;8.612;2023-08-24T06:04:06;14.97;;;9.03;;
5722;SDS011;2886;49.722;8.612;2023-08-24T06:06:32;11.77;;;9.50;;
5722;SDS011;2886;49.722;8.612;2023-08-24T06:08:58;13.27;;;9.13;;
5722;SDS011;2886;49.722;8.612;2023-08-24T06:11:23;17.70;;;9.80;;
5722;SDS011;2886;49.722;8.612;2023-08-24T06:13:49;15.30;;;9.73;;
5722;SDS011;2886;49.722;8.612;2023-08-24T06:16:17;10.90;;;9.10;;
5722;SDS011;2886;49.722;8.612;2023-08-24T06:18:42;15.00;;;10.23;;
5722;SDS011;2886;49.722;8.612;2023-08-24T06:21:09;13.30;;;9.17;;
5722;SDS011;2886;49.722;8.612;2023-08-24T06:23:34;15.43;;;10.20;;
5722;SDS011;2886;49.722;8.612;2023-08-24T06:26:00;14.73;;;9.70;;
5722;SDS011;2886;49.722;8.612;2023-08-24T06:28:26;13.20;;;9.97;;
5722;SDS011;2886;49.722;8.612;2023-08-24T06:30:52;12.40;;;9.47;;
5722;SDS011;2886;49.722;8.612;2023-08-24T06:33:19;20.20;;;9.93;;
5722;SDS011;2886;49.722;8.612;2023-08-24T06:35:45;24.40;;;10.37;;
5722;SDS011;2886;49.722;8.612;2023-08-24T06:38:10;17.83;;;8.70;;
5722;SDS011;2886;49.722;8.612;2023-08-24T06:40:36;12.33;;;8.87;;
5722;SDS011;2886;49.722;8.612;2023-08-24T06:43:02;13.53;;;9.90;;
5722;SDS011;2886;49.722;8.612;2023-08-24T06:45:27;11.50;;;8.40;;
5722;SDS011;2886;49.722;8.612;2023-08-24T06:47:53;13.87;;;9.17;;
5722;SDS011;2886;49.722;8.612;2023-08-24T06:50:19;20.10;;;9.87;;
5722;SDS011;2886;49.722;8.612;2023-08-24T06:52:45;9.27;;;7.90;;
5722;SDS011;2886;49.722;8.612;2023-08-24T06:55:11;10.63;;;9.10;;
5722;SDS011;2886;49.722;8.612;2023-08-24T06:57:37;15.00;;;8.50;;
5722;SDS011;2886;49.722;8.612;2023-08-24T07:00:03;18.17;;;8.73;;
5722;SDS011;2886;49.722;8.612;2023-08-24T07:02:37;11.10;;;8.43;;
5722;SDS011;2886;49.722;8.612;2023-08-24T07:05:03;10.73;;;8.10;;
5722;SDS011;2886;49.722;8.612;2023-08-24T07:07:34;10.07;;;8.17;;
5722;SDS011;2886;49.722;8.612;2023-08-24T07:10:00;12.43;;;7.90;;
5722;SDS011;2886;49.722;8.612;2023-08-24T07:12:25;12.80;;;8.83;;
5722;SDS011;2886;49.722;8.612;2023-08-24T07:14:51;12.20;;;8.33;;
5722;SDS011;2886;49.722;8.612;2023-08-24T07:17:17;12.43;;;8.00;;
5722;SDS011;2886;49.722;8.612;2023-08-24T07:19:43;11.03;;;7.73;;
5722;SDS011;2886;49.722;8.612;2023-08-24T07:22:08;8.57;;;7.30;;
5722;SDS011;2886;49.722;8.612;2023-08-24T07:24:34;8.27;;;7.00;;
5722;SDS011;2886;49.722;8.612;2023-08-24T07:27:01;7.87;;;6.43;;
5722;SDS011;2886;49.722;8.612;2023-08-24T07:29:28;9.57;;;6.47;;
5722;SDS011;2886;49.722;8.612;2023-08-24T07:31:54;9.40;;;7.03;;
5722;SDS011;2886;49.722;8.612;2023-08-24T07:34:19;8.97;;;6.13;;
5722;SDS011;2886;49.722;8.612;2023-08-24T07:36:47;8.60;;;6.80;;
5722;SDS011;2886;49.722;8.612;2023-08-24T07:39:13;5.10;;;4.60;;
5722;SDS011;2886;49.722;8.612;2023-08-24T07:41:40;7.30;;;4.70;;
5722;SDS011;2886;49.722;8.612;2023-08-24T07:44:10;6.37;;;4.27;;
5722;SDS011;2886;49.722;8.612;2023-08-24T07:46:35;12.60;;;4.20;;
5722;SDS011;2886;49.722;8.612;2023-08-24T07:49:01;9.57;;;3.67;;
5722;SDS011;2886;49.722;8.612;2023-08-24T07:51:26;4.60;;;3.50;;
5722;SDS011;2886;49.722;8.612;2023-08-24T07:53:53;4.67;;;3.60;;
5722;SDS011;2886;49.722;8.612;2023-08-24T07:56:19;3.87;;;3.47;;
5722;SDS011;2886;49.722;8.612;2023-08-24T07:58:45;5.47;;;3.53;;
5722;SDS011;2886;49.722;8.612;2023-08-24T08:01:11;8.43;;;3.43;;
5722;SDS011;2886;49.722;8.612;2023-08-24T08:03:37;3.83;;;3.50;;
5722;SDS011;2886;49.722;8.612;2023-08-24T08:06:02;4.33;;;3.10;;
5722;SDS011;2886;49.722;8.612;2023-08-24T08:08:29;6.43;;;3.93;;
5722;SDS011;2886;49.722;8.612;2023-08-24T08:10:58;14.87;;;4.60;;
5722;SDS011;2886;49.722;8.612;2023-08-24T08:13:25;4.00;;;3.60;;
5722;SDS011;2886;49.722;8.612;2023-08-24T08:15:51;5.50;;;3.80;;
5722;SDS011;2886;49.722;8.612;2023-08-24T08:18:17;11.30;;;4.10;;
5722;SDS011;2886;49.722;8.612;2023-08-24T08:20:42;3.70;;;2.90;;
5722;SDS011;2886;49.722;8.612;2023-08-24T08:23:08;6.47;;;3.00;;
5722;SDS011;2886;49.722;8.612;2023-08-24T08:25:34;4.37;;;2.40;;
5722;SDS011;2886;49.722;8.612;2023-08-24T08:27:59;4.13;;;3.07;;
5722;SDS011;2886;49.722;8.612;2023-08-24T08:30:25;3.97;;;2.80;;
5722;SDS011;2886;49.722;8.612;2023-08-24T08:32:50;4.30;;;2.93;;
5722;SDS011;2886;49.722;8.612;2023-08-24T08:35:17;6.67;;;2.60;;
5722;SDS011;2886;49.722;8.612;2023-08-24T08:37:44;3.57;;;2.60;;
5722;SDS011;2886;49.722;8.612;2023-08-24T08:40:10;5.13;;;2.80;;
5722;SDS011;2886;49.722;8.612;2023-08-24T08:42:36;3.23;;;2.50;;
5722;SDS011;2886;49.722;8.612;2023-08-24T08:45:02;4.47;;;2.30;;
5722;SDS011;2886;49.722;8.612;2023-08-24T08:47:33;5.67;;;2.43;;
5722;SDS011;2886;49.722;8.612;2023-08-24T08:49:59;4.07;;;2.30;;
5722;SDS011;2886;49.722;8.612;2023-08-24T08:52:28;3.23;;;2.60;;
5722;SDS011;2886;49.722;8.612;2023-08-24T08:54:53;2.40;;;2.20;;
5722;SDS011;2886;49.722;8.612;2023-08-24T08:57:19;5.27;;;4.10;;
5722;SDS011;2886;49.722;8.612;2023-08-24T08:59:47;3.10;;;2.50;;
5722;SDS011;2886;49.722;8.612;2023-08-24T09:02:16;5.03;;;2.60;;
5722;SDS011;2886;49.722;8.612;2023-08-24T09:04:47;3.80;;;3.10;;
5722;SDS011;2886;49.722;8.612;2023-08-24T09:07:15;3.73;;;3.33;;
5722;SDS011;2886;49.722;8.612;2023-08-24T09:09:41;5.23;;;2.90;;
5722;SDS011;2886;49.722;8.612;2023-08-24T09:12:08;3.83;;;3.30;;
5722;SDS011;2886;49.722;8.612;2023-08-24T09:14:33;12.53;;;4.00;;
5722;SDS011;2886;49.722;8.612;2023-08-24T09:16:59;3.90;;;3.30;;
5722;SDS011;2886;49.722;8.612;2023-08-24T09:19:29;7.93;;;3.53;;
5722;SDS011;2886;49.722;8.612;2023-08-24T09:21:59;7.83;;;3.90;;
5722;SDS011;2886;49.722;8.612;2023-08-24T09:24:29;5.37;;;2.77;;
5722;SDS011;2886;49.722;8.612;2023-08-24T09:26:59;5.43;;;3.20;;
5722;SDS011;2886;49.722;8.612;2023-08-24T09:29:28;4.90;;;2.63;;
5722;SDS011;2886;49.722;8.612;2023-08-24T09:32:01;5.30;;;3.33;;
5722;SDS011;2886;49.722;8.612;2023-08-24T09:34:27;5.93;;;3.33;;
5722;SDS011;2886;49.722;8.612;2023-08-24T09:36:55;3.53;;;2.70;;
5722;SDS011;2886;49.722;8.612;2023-08-24T09:39:22;3.50;;;2.80;;
5722;SDS011;2886;49.722;8.612;2023-08-24T09:41:49;4.37;;;2.80;;
5722;SDS011;2886;49.722;8.612;2023-08-24T09:44:16;10.83;;;3.03;;
5722;SDS011;2886;49.722;8.612;2023-08-24T09:46:42;5.20;;;3.20;;
5722;SDS011;2886;49.722;8.612;2023-08-24T09:49:09;19.47;;;3.27;;
5722;SDS011;2886;49.722;8.612;2023-08-24T09:51:36;6.13;;;3.23;;
5722;SDS011;2886;49.722;8.612;2023-08-24T09:54:07;5.20;;;3.23;;
5722;SDS011;2886;49.722;8.612;2023-08-24T09:56:34;4.10;;;3.27;;
5722;SDS011;2886;49.722;8.612;2023-08-24T09:59:13;5.63;;;3.77;;
5722;SDS011;2886;49.722;8.612;2023-08-24T10:01:43;4.70;;;3.33;;
5722;SDS011;2886;49.722;8.612;2023-08-24T10:04:12;12.43;;;3.60;;
5722;SDS011;2886;49.722;8.612;2023-08-24T10:06:39;10.20;;;3.93;;
5722;SDS011;2886;49.722;8.612;2023-08-24T10:09:11;3.70;;;3.00;;
5722;SDS011;2886;49.722;8.612;2023-08-24T10:11:46;5.53;;;3.20;;
5722;SDS011;2886;49.722;8.612;2023-08-24T10:16:52;4.10;;;2.83;;
5722;SDS011;2886;49.722;8.612;2023-08-24T10:19:18;6.53;;;3.23;;
5722;SDS011;2886;49.722;8.612;2023-08-24T10:21:46;4.60;;;2.80;;
5722;SDS011;2886;49.722;8.612;2023-08-24T10:24:12;4.30;;;3.10;;
5722;SDS011;2886;49.722;8.612;2023-08-24T10:26:39;4.93;;;3.00;;
5722;SDS011;2886;49.722;8.612;2023-08-24T10:29:06;11.83;;;3.10;;
5722;SDS011;2886;49.722;8.612;2023-08-24T10:31:32;4.33;;;2.70;;
5722;SDS011;2886;49.722;8.612;2023-08-24T10:33:59;5.20;;;3.00;;
5722;SDS011;2886;49.722;8.612;2023-08-24T10:36:26;5.00;;;3.13;;
5722;SDS011;2886;49.722;8.612;2023-08-24T10:38:55;5.83;;;2.70;;
5722;SDS011;2886;49.722;8.612;2023-08-24T10:41:25;3.60;;;3.23;;
5722;SDS011;2886;49.722;8.612;2023-08-24T10:43:52;3.00;;;2.70;;
5722;SDS011;2886;49.722;8.612;2023-08-24T10:46:17;4.60;;;3.10;;
5722;SDS011;2886;49.722;8.612;2023-08-24T10:56:19;3.70;;;2.63;;
5722;SDS011;2886;49.722;8.612;2023-08-24T10:58:45;4.07;;;2.90;;
5722;SDS011;2886;49.722;8.612;2023-08-24T11:01:18;3.83;;;2.90;;
5722;SDS011;2886;49.722;8.612;2023-08-24T11:03:50;2.87;;;2.67;;
5722;SDS011;2886;49.722;8.612;2023-08-24T11:06:22;4.37;;;2.80;;
5722;SDS011;2886;49.722;8.612;2023-08-24T11:09:06;3.43;;;2.80;;
5722;SDS011;2886;49.722;8.612;2023-08-24T11:11:38;7.77;;;2.53;;
5722;SDS011;2886;49.722;8.612;2023-08-24T11:14:17;6.80;;;2.70;;
5722;SDS011;2886;49.722;8.612;2023-08-24T11:16:56;4.70;;;2.37;;
5722;SDS011;2886;49.722;8.612;2023-08-24T11:19:27;3.77;;;2.43;;
5722;SDS011;2886;49.722;8.612;2023-08-24T11:21:53;3.10;;;2.80;;
5722;SDS011;2886;49.722;8.612;2023-08-24T11:24:18;2.83;;;2.50;;
5722;SDS011;2886;49.722;8.612;2023-08-24T11:26:45;2.83;;;2.60;;
5722;SDS011;2886;49.722;8.612;2023-08-24T11:29:12;2.50;;;2.30;;
5722;SDS011;2886;49.722;8.612;2023-08-24T11:31:38;10.13;;;3.23;;
5722;SDS011;2886;49.722;8.612;2023-08-24T11:34:05;2.70;;;2.50;;
5722;SDS011;2886;49.722;8.612;2023-08-24T11:36:40;6.47;;;2.80;;
5722;SDS011;2886;49.722;8.612;2023-08-24T11:39:15;3.63;;;3.00;;
5722;SDS011;2886;49.722;8.612;2023-08-24T11:41:41;4.50;;;2.67;;
5722;SDS011;2886;49.722;8.612;2023-08-24T11:44:07;3.70;;;2.63;;
5722;SDS011;2886;49.722;8.612;2023-08-24T11:46:33;3.10;;;2.70;;
5722;SDS011;2886;49.722;8.612;2023-08-24T11:48:58;3.10;;;2.50;;
5722;SDS011;2886;49.722;8.612;2023-08-24T11:51:24;3.23;;;2.77;;
5722;SDS011;2886;49.722;8.612;2023-08-24T11:53:50;3.80;;;2.60;;
5722;SDS011;2886;49.722;8.612;2023-08-24T11:56:16;3.67;;;2.70;;
5722;SDS011;2886;49.722;8.612;2023-08-24T11:58:43;2.70;;;2.10;;
5722;SDS011;2886;49.722;8.612;2023-08-24T12:01:13;4.73;;;2.80;;
5722;SDS011;2886;49.722;8.612;2023-08-24T12:03:40;3.00;;;2.70;;
5722;SDS011;2886;49.722;8.612;2023-08-24T12:06:12;2.93;;;2.60;;
5722;SDS011;2886;49.722;8.612;2023-08-24T12:08:40;2.90;;;2.60;;
5722;SDS011;2886;49.722;8.612;2023-08-24T12:11:13;4.20;;;2.50;;
5722;SDS011;2886;49.722;8.612;2023-08-24T12:13:44;3.70;;;2.67;;
5722;SDS011;2886;49.722;8.612;2023-08-24T12:16:17;2.17;;;2.00;;
5722;SDS011;2886;49.722;8.612;2023-08-24T12:19:01;3.10;;;2.23;;
5722;SDS011;2886;49.722;8.612;2023-08-24T12:21:28;5.00;;;2.77;;
5722;SDS011;2886;49.722;8.612;2023-08-24T12:23:58;7.63;;;2.20;;
5722;SDS011;2886;49.722;8.612;2023-08-24T12:26:25;4.97;;;2.63;;
5722;SDS011;2886;49.722;8.612;2023-08-24T12:28:55;9.17;;;3.00;;
5722;SDS011;2886;49.722;8.612;2023-08-24T12:31:26;3.33;;;2.60;;
5722;SDS011;2886;49.722;8.612;2023-08-24T12:34:03;3.57;;;2.60;;
5722;SDS011;2886;49.722;8.612;2023-08-24T12:36:29;6.93;;;2.50;;
5722;SDS011;2886;49.722;8.612;2023-08-24T12:38:57;2.70;;;2.20;;
5722;SDS011;2886;49.722;8.612;2023-08-24T12:41:23;3.77;;;2.90;;
5722;SDS011;2886;49.722;8.612;2023-08-24T12:43:49;5.00;;;2.50;;
5722;SDS011;2886;49.722;8.612;2023-08-24T12:46:15;3.93;;;2.70;;
5722;SDS011;2886;49.722;8.612;2023-08-24T12:48:41;4.00;;;2.50;;
5722;SDS011;2886;49.722;8.612;2023-08-24T12:51:07;3.87;;;2.70;;
5722;SDS011;2886;49.722;8.612;2023-08-24T12:53:32;2.67;;;2.10;;
5722;SDS011;2886;49.722;8.612;2023-08-24T12:55:58;9.18;;;2.90;;
5722;SDS011;2886;49.722;8.612;2023-08-24T12:58:23;3.00;;;2.65;;
5722;SDS011;2886;49.722;8.612;2023-08-24T13:00:50;4.90;;;2.53;;
5722;SDS011;2886;49.722;8.612;2023-08-24T13:03:16;7.03;;;3.63;;
5722;SDS011;2886;49.722;8.612;2023-08-24T13:05:41;3.83;;;2.70;;
5722;SDS011;2886;49.722;8.612;2023-08-24T13:08:07;3.30;;;2.77;;
5722;SDS011;2886;49.722;8.612;2023-08-24T13:10:33;3.73;;;2.90;;
5722;SDS011;2886;49.722;8.612;2023-08-24T13:12:59;3.00;;;2.40;;
5722;SDS011;2886;49.722;8.612;2023-08-24T13:15:24;6.10;;;2.77;;
5722;SDS011;2886;49.722;8.612;2023-08-24T13:17:51;6.33;;;2.50;;
5722;SDS011;2886;49.722;8.612;2023-08-24T13:20:16;4.10;;;2.80;;
5722;SDS011;2886;49.722;8.612;2023-08-24T13:22:42;3.20;;;2.90;;
5722;SDS011;2886;49.722;8.612;2023-08-24T13:25:08;2.80;;;2.60;;
5722;SDS011;2886;49.722;8.612;2023-08-24T13:27:34;3.07;;;2.77;;
5722;SDS011;2886;49.722;8.612;2023-08-24T13:30:00;3.93;;;3.00;;
5722;SDS011;2886;49.722;8.612;2023-08-24T13:32:25;7.73;;;3.73;;
5722;SDS011;2886;49.722;8.612;2023-08-24T13:34:51;3.77;;;2.70;;
5722;SDS011;2886;49.722;8.612;2023-08-24T13:37:17;3.67;;;3.37;;
5722;SDS011;2886;49.722;8.612;2023-08-24T13:39:43;6.13;;;4.17;;
5722;SDS011;2886;49.722;8.612;2023-08-24T13:42:09;7.00;;;3.07;;
5722;SDS011;2886;49.722;8.612;2023-08-24T13:44:34;8.37;;;3.80;;
5722;SDS011;2886;49.722;8.612;2023-08-24T13:47:00;5.63;;;3.20;;
5722;SDS011;2886;49.722;8.612;2023-08-24T13:49:25;11.87;;;3.47;;
5722;SDS011;2886;49.722;8.612;2023-08-24T13:51:51;8.80;;;3.67;;
5722;SDS011;2886;49.722;8.612;2023-08-24T13:54:18;7.00;;;3.77;;
5722;SDS011;2886;49.722;8.612;2023-08-24T13:56:46;5.40;;;3.27;;
5722;SDS011;2886;49.722;8.612;2023-08-24T13:59:13;7.97;;;3.20;;
5722;SDS011;2886;49.722;8.612;2023-08-24T14:01:40;10.00;;;3.40;;
5722;SDS011;2886;49.722;8.612;2023-08-24T14:04:06;3.73;;;3.30;;
5722;SDS011;2886;49.722;8.612;2023-08-24T14:06:33;4.80;;;3.50;;
5722;SDS011;2886;49.722;8.612;2023-08-24T14:09:02;10.00;;;3.50;;
5722;SDS011;2886;49.722;8.612;2023-08-24T14:11:29;4.70;;;3.60;;
5722;SDS011;2886;49.722;8.612;2023-08-24T14:13:55;3.63;;;3.30;;
5722;SDS011;2886;49.722;8.612;2023-08-24T14:16:20;6.83;;;3.50;;
5722;SDS011;2886;49.722;8.612;2023-08-24T14:18:46;6.73;;;3.80;;
5722;SDS011;2886;49.722;8.612;2023-08-24T14:21:13;8.87;;;3.67;;
5722;SDS011;2886;49.722;8.612;2023-08-24T14:23:39;5.73;;;3.87;;
5722;SDS011;2886;49.722;8.612;2023-08-24T14:26:05;13.53;;;3.77;;
5722;SDS011;2886;49.722;8.612;2023-08-24T14:31:20;8.90;;;4.27;;
5722;SDS011;2886;49.722;8.612;2023-08-24T14:33:49;5.33;;;3.43;;
5722;SDS011;2886;49.722;8.612;2023-08-24T14:36:18;4.50;;;3.20;;
5722;SDS011;2886;49.722;8.612;2023-08-24T14:38:45;5.97;;;3.67;;
5722;SDS011;2886;49.722;8.612;2023-08-24T14:41:11;6.23;;;3.73;;
5722;SDS011;2886;49.722;8.612;2023-08-24T14:43:38;5.90;;;3.63;;
5722;SDS011;2886;49.722;8.612;2023-08-24T14:46:05;5.53;;;3.30;;
5722;SDS011;2886;49.722;8.612;2023-08-24T14:48:30;12.43;;;5.07;;
5722;SDS011;2886;49.722;8.612;2023-08-24T14:50:56;3.77;;;3.20;;
5722;SDS011;2886;49.722;8.612;2023-08-24T14:53:23;8.13;;;3.47;;
5722;SDS011;2886;49.722;8.612;2023-08-24T14:55:49;5.27;;;3.80;;
5722;SDS011;2886;49.722;8.612;2023-08-24T14:58:15;14.00;;;4.80;;
5722;SDS011;2886;49.722;8.612;2023-08-24T15:00:40;5.40;;;4.17;;
5722;SDS011;2886;49.722;8.612;2023-08-24T15:03:06;8.23;;;4.70;;
5722;SDS011;2886;49.722;8.612;2023-08-24T15:05:45;8.93;;;5.20;;
5722;SDS011;2886;49.722;8.612;2023-08-24T15:08:20;6.93;;;5.13;;
5722;SDS011;2886;49.722;8.612;2023-08-24T15:10:47;6.90;;;5.23;;
5722;SDS011;2886;49.722;8.612;2023-08-24T15:13:13;11.03;;;5.20;;
5722;SDS011;2886;49.722;8.612;2023-08-24T15:15:39;8.43;;;5.20;;
5722;SDS011;2886;49.722;8.612;2023-08-24T15:18:05;6.33;;;4.90;;
5722;SDS011;2886;49.722;8.612;2023-08-24T15:20:31;8.00;;;5.10;;
5722;SDS011;2886;49.722;8.612;2023-08-24T15:22:58;6.33;;;4.50;;
5722;SDS011;2886;49.722;8.612;2023-08-24T15:25:24;5.93;;;4.33;;
5722;SDS011;2886;49.722;8.612;2023-08-24T15:27:49;8.57;;;6.03;;